createdAt,value
2019-05-12T00:01:28.642Z,37.23
2019-05-12T00:03:58.287Z,39.07
2019-05-12T00:06:28.449Z,34.40
2019-05-12T00:08:58.179Z,36.17
2019-05-12T00:11:28.682Z,38.40
2019-05-12T00:13:58.768Z,39.37
2019-05-12T00:16:28.481Z,38.43
2019-05-12T00:18:58.667Z,43.70
2019-05-12T00:21:28.439Z,39.60
2019-05-12T00:24:13.422Z,43.57
2019-05-12T00:26:43.389Z,41.67
2019-05-12T00:29:12.802Z,42.47
2019-05-12T00:31:42.301Z,43.60
2019-05-12T00:34:11.666Z,44.70
2019-05-12T00:36:40.986Z,42.70
2019-05-12T00:39:10.314Z,49.87
2019-05-12T00:41:39.908Z,44.43
2019-05-12T00:44:09.311Z,43.17
2019-05-12T00:46:38.791Z,42.03
2019-05-12T00:49:08.561Z,46.77
2019-05-12T00:51:38.378Z,47.33
2019-05-12T00:54:09.202Z,42.33
2019-05-12T00:56:39.366Z,43.87
2019-05-12T00:59:08.975Z,41.40
2019-05-12T01:01:38.441Z,42.27
2019-05-12T01:04:08.790Z,44.97
2019-05-12T01:06:38.896Z,39.43
2019-05-12T01:09:09.134Z,37.23
2019-05-12T01:11:38.645Z,41.93
2019-05-12T01:14:08.708Z,44.57
2019-05-12T01:16:38.644Z,40.70
2019-05-12T01:19:08.352Z,40.60
2019-05-12T01:21:37.993Z,39.27
2019-05-12T01:24:08.712Z,43.57
2019-05-12T01:26:38.924Z,43.73
2019-05-12T01:29:08.721Z,40.93
2019-05-12T01:31:44.227Z,38.13
2019-05-12T01:34:13.664Z,39.23
2019-05-12T01:36:43.143Z,40.43
2019-05-12T01:39:12.584Z,39.60
2019-05-12T01:41:41.901Z,38.60
2019-05-12T01:44:11.291Z,36.80
2019-05-12T01:46:40.596Z,38.10
2019-05-12T01:49:09.969Z,34.83
2019-05-12T01:51:39.409Z,36.40
2019-05-12T01:54:14.691Z,37.37
2019-05-12T01:56:39.923Z,38.80
2019-05-12T01:59:09.263Z,40.20
2019-05-12T02:01:39.038Z,38.50
2019-05-12T02:04:09.006Z,36.33
2019-05-12T02:06:38.766Z,40.53
2019-05-12T02:09:11.997Z,36.23
2019-05-12T02:11:41.325Z,34.30
2019-05-12T02:14:10.695Z,37.67
2019-05-12T02:16:40.038Z,34.73
2019-05-12T02:19:09.430Z,37.23
2019-05-12T02:21:38.869Z,33.30
2019-05-12T02:24:23.060Z,35.70
2019-05-12T02:26:39.396Z,39.03
2019-05-12T02:29:08.794Z,38.77
2019-05-12T02:31:39.750Z,37.60
2019-05-12T02:34:09.261Z,41.93
2019-05-12T02:36:38.587Z,38.47
2019-05-12T02:39:08.723Z,36.30
2019-05-12T02:41:38.115Z,40.57
2019-05-12T02:44:07.589Z,40.47
2019-05-12T02:46:37.003Z,39.07
2019-05-12T02:49:06.482Z,41.80
2019-05-12T02:51:36.515Z,39.47
2019-05-12T02:54:06.252Z,42.73
2019-05-12T02:56:36.246Z,41.77
2019-05-12T02:59:06.268Z,40.23
2019-05-12T03:01:36.245Z,39.33
2019-05-12T03:04:06.125Z,38.30
2019-05-12T03:06:36.582Z,43.47
2019-05-12T03:09:08.932Z,45.67
2019-05-12T03:11:38.418Z,45.77
2019-05-12T03:14:07.849Z,45.83
2019-05-12T03:16:37.253Z,43.27
2019-05-12T03:19:06.638Z,57.13
2019-05-12T03:21:36.208Z,42.83
2019-05-12T03:24:06.764Z,44.87
2019-05-12T03:26:36.393Z,48.03
2019-05-12T03:29:06.299Z,46.10
2019-05-12T03:31:39.930Z,42.60
2019-05-12T03:34:10.241Z,46.23
2019-05-12T03:36:41.841Z,44.90
2019-05-12T03:39:09.893Z,45.97
2019-05-12T03:41:39.334Z,42.47
2019-05-12T03:44:08.828Z,43.67
2019-05-12T03:46:38.314Z,39.23
2019-05-12T03:49:07.690Z,40.53
2019-05-12T03:51:37.233Z,40.53
2019-05-12T03:54:06.682Z,39.43
2019-05-12T03:56:36.114Z,39.13
2019-05-12T03:59:05.997Z,43.00
2019-05-12T04:01:36.800Z,39.43
2019-05-12T04:04:06.473Z,42.37
2019-05-12T04:06:36.152Z,39.93
2019-05-12T04:09:08.576Z,42.30
2019-05-12T04:11:38.399Z,42.67
2019-05-12T04:14:07.782Z,38.30
2019-05-12T04:16:37.520Z,39.77
2019-05-12T04:19:06.907Z,35.57
2019-05-12T04:21:36.354Z,36.13
2019-05-12T04:24:06.252Z,38.87
2019-05-12T04:26:36.908Z,35.63
2019-05-12T04:29:06.741Z,35.37
2019-05-12T04:31:37.161Z,35.17
2019-05-12T04:34:06.648Z,42.33
2019-05-12T04:36:36.126Z,36.40
2019-05-12T04:39:07.844Z,39.57
2019-05-12T04:41:37.783Z,35.87
2019-05-12T04:44:07.197Z,37.07
2019-05-12T04:46:36.697Z,39.30
2019-05-12T04:49:06.098Z,38.37
2019-05-12T04:51:35.690Z,38.47
2019-05-12T04:54:06.087Z,35.73
2019-05-12T04:56:36.429Z,33.97
2019-05-12T04:59:06.167Z,34.47
2019-05-12T05:01:35.676Z,33.73
2019-05-12T05:04:05.867Z,36.73
2019-05-12T05:06:36.092Z,36.67
2019-05-12T05:09:08.219Z,34.43
2019-05-12T05:11:37.713Z,32.80
2019-05-12T05:14:07.103Z,30.53
2019-05-12T05:16:36.568Z,34.30
2019-05-12T05:19:06.170Z,31.87
2019-05-12T05:21:35.609Z,30.23
2019-05-12T05:24:05.031Z,32.23
2019-05-12T05:26:37.276Z,31.33
2019-05-12T05:29:05.457Z,33.43
2019-05-12T05:31:35.525Z,34.07
2019-05-12T05:34:05.159Z,32.67
2019-05-12T05:36:34.972Z,35.83
2019-05-12T05:39:06.930Z,34.47
2019-05-12T05:41:40.218Z,29.93
2019-05-12T05:44:07.442Z,36.37
2019-05-12T05:46:39.154Z,31.70
2019-05-12T05:49:08.046Z,31.13
2019-05-12T05:51:39.508Z,33.23
2019-05-12T05:54:08.498Z,32.87
2019-05-12T05:56:42.713Z,31.63
2019-05-12T05:59:09.043Z,30.90
2019-05-12T06:01:40.098Z,33.10
2019-05-12T06:04:09.422Z,30.03
2019-05-12T06:06:42.459Z,31.87
2019-05-12T06:09:10.008Z,30.33
2019-05-12T06:11:39.370Z,35.23
2019-05-12T06:14:13.208Z,29.93
2019-05-12T06:16:43.379Z,33.00
2019-05-12T06:19:14.693Z,32.30
2019-05-12T06:21:44.216Z,33.77
2019-05-12T06:24:18.944Z,30.33
2019-05-12T06:26:56.643Z,29.87
2019-05-12T06:29:20.344Z,30.10
2019-05-12T06:31:47.031Z,31.07
2019-05-12T06:34:20.904Z,33.60
2019-05-12T06:36:47.577Z,33.67
2019-05-12T06:39:20.555Z,31.90
2019-05-12T06:41:48.142Z,31.07
2019-05-12T06:44:19.610Z,32.43
2019-05-12T06:46:53.556Z,31.13
2019-05-12T06:49:19.744Z,29.03
2019-05-12T06:51:53.461Z,31.93
2019-05-12T06:54:20.309Z,28.10
2019-05-12T06:56:50.090Z,28.23
2019-05-12T06:59:23.504Z,29.90
2019-05-12T07:01:58.717Z,27.67
2019-05-12T07:04:24.031Z,27.33
2019-05-12T07:06:56.205Z,26.87
2019-05-12T07:09:28.272Z,27.20
2019-05-12T07:12:02.706Z,31.10
2019-05-12T07:14:27.452Z,36.23
2019-05-12T07:17:03.384Z,26.80
2019-05-12T07:19:33.788Z,28.07
2019-05-12T07:22:07.875Z,26.67
2019-05-12T07:24:34.410Z,27.23
2019-05-12T07:27:09.021Z,25.50
2019-05-12T07:29:37.345Z,25.10
2019-05-12T07:32:15.146Z,25.13
2019-05-12T07:34:37.927Z,24.70
2019-05-12T07:37:07.762Z,26.50
2019-05-12T07:39:45.462Z,27.83
2019-05-12T07:42:13.342Z,27.53
2019-05-12T07:44:45.015Z,25.63
2019-05-12T07:47:19.160Z,23.67
2019-05-12T07:49:45.798Z,23.47
2019-05-12T07:52:15.137Z,23.90
2019-05-12T07:54:44.590Z,25.77
2019-05-12T07:57:17.307Z,23.33
2019-05-12T07:59:45.510Z,21.30
2019-05-12T08:02:14.901Z,24.60
2019-05-12T08:04:44.252Z,20.70
2019-05-12T08:07:14.548Z,22.25
2019-05-12T08:09:44.295Z,20.00
2019-05-12T08:12:16.407Z,22.07
2019-05-12T08:14:44.776Z,21.57
2019-05-12T08:17:19.222Z,23.52
2019-05-12T08:19:45.260Z,22.73
2019-05-12T08:22:19.002Z,20.12
2019-05-12T08:24:48.183Z,19.75
2019-05-12T08:27:17.063Z,19.35
2019-05-12T08:29:46.470Z,21.80
2019-05-12T08:32:19.998Z,20.17
2019-05-12T08:34:46.949Z,19.80
2019-05-12T08:37:16.398Z,21.30
2019-05-12T08:39:45.832Z,16.02
2019-05-12T08:42:15.254Z,16.60
2019-05-12T08:44:44.754Z,18.60
2019-05-12T08:47:15.179Z,19.42
2019-05-12T08:49:51.052Z,15.53
2019-05-12T08:52:16.021Z,18.57
2019-05-12T08:54:49.266Z,16.15
2019-05-12T08:57:16.581Z,21.37
2019-05-12T08:59:46.105Z,14.90
2019-05-12T09:02:15.578Z,13.75
2019-05-12T09:04:51.329Z,14.00
2019-05-12T09:07:16.691Z,14.15
2019-05-12T09:09:46.300Z,13.03
2019-05-12T09:12:15.673Z,12.80
2019-05-12T09:14:46.257Z,15.18
2019-05-12T09:17:16.000Z,14.85
2019-05-12T09:19:45.418Z,14.38
2019-05-12T09:22:18.514Z,13.08
2019-05-12T09:24:46.374Z,14.95
2019-05-12T09:27:15.867Z,13.95
2019-05-12T09:29:45.255Z,13.60
2019-05-12T09:32:14.939Z,13.50
2019-05-12T09:34:52.714Z,10.65
2019-05-12T09:37:15.458Z,11.18
2019-05-12T09:39:47.230Z,12.28
2019-05-12T09:42:19.277Z,10.78
2019-05-12T09:44:47.087Z,12.37
2019-05-12T09:47:22.987Z,12.98
2019-05-12T09:49:47.535Z,10.08
2019-05-12T09:52:22.719Z,12.53
2019-05-12T09:54:48.056Z,8.93
2019-05-12T09:57:17.377Z,8.73
2019-05-12T09:59:57.288Z,8.28
2019-05-12T10:02:20.613Z,7.60
2019-05-12T10:04:50.201Z,6.92
2019-05-12T10:07:20.305Z,9.23
2019-05-12T10:09:55.116Z,5.72
2019-05-12T10:12:20.851Z,11.33
2019-05-12T10:14:50.182Z,5.17
2019-05-12T10:17:20.284Z,7.83
2019-05-12T10:19:56.231Z,7.15
2019-05-12T10:22:23.585Z,6.67
2019-05-12T10:24:58.398Z,6.78
2019-05-12T10:27:27.227Z,7.78
2019-05-12T10:29:55.301Z,8.60
2019-05-12T10:32:24.679Z,6.35
2019-05-12T10:34:54.017Z,6.70
2019-05-12T10:37:25.243Z,7.72
2019-05-12T10:39:54.454Z,8.03
2019-05-12T10:42:24.328Z,6.53
2019-05-12T10:44:56.532Z,6.45
2019-05-12T10:47:24.926Z,7.58
2019-05-12T10:49:54.265Z,9.23
2019-05-12T10:52:24.406Z,7.12
2019-05-12T10:54:54.166Z,6.47
2019-05-12T10:57:23.750Z,6.08
2019-05-12T10:59:53.387Z,12.07
2019-05-12T11:02:26.557Z,9.13
2019-05-12T11:04:54.306Z,7.37
2019-05-12T11:07:28.192Z,7.33
2019-05-12T11:09:54.931Z,8.33
2019-05-12T11:12:28.916Z,8.40
2019-05-12T11:14:55.786Z,7.42
2019-05-12T11:17:26.884Z,6.70
2019-05-12T11:19:56.355Z,7.15
2019-05-12T11:22:25.775Z,9.30
2019-05-12T11:24:55.825Z,9.55
2019-05-12T11:27:25.367Z,8.58
2019-05-12T11:29:54.907Z,6.83
2019-05-12T11:32:28.979Z,7.72
2019-05-12T11:34:55.379Z,10.78
2019-05-12T11:37:24.731Z,6.08
2019-05-12T11:39:54.160Z,6.08
2019-05-12T11:42:23.905Z,6.33
2019-05-12T11:44:53.355Z,7.87
2019-05-12T11:47:25.847Z,10.05
2019-05-12T11:49:58.468Z,7.15
2019-05-12T11:52:24.974Z,9.15
2019-05-12T11:54:54.854Z,5.83
2019-05-12T11:57:26.230Z,8.70
2019-05-12T12:00:02.006Z,8.93
2019-05-12T12:02:30.392Z,9.20
2019-05-12T12:04:57.597Z,6.05
2019-05-12T12:07:26.966Z,6.12
2019-05-12T12:09:59.400Z,6.95
2019-05-12T12:12:27.433Z,6.92
2019-05-12T12:14:56.924Z,6.95
2019-05-12T12:17:31.034Z,5.30
2019-05-12T12:19:57.487Z,6.12
2019-05-12T12:22:29.797Z,8.00
2019-05-12T12:25:05.110Z,4.85
2019-05-12T12:27:29.059Z,3.98
2019-05-12T12:30:12.897Z,4.70
2019-05-12T12:32:29.669Z,9.43
2019-05-12T12:35:00.894Z,7.03
2019-05-12T12:37:30.205Z,18.57
2019-05-12T12:39:59.672Z,7.65
2019-05-12T12:42:30.344Z,4.45
2019-05-12T12:45:06.792Z,4.87
2019-05-12T12:47:46.831Z,4.78
2019-05-12T12:50:07.543Z,4.00
2019-05-12T12:52:38.770Z,4.62
2019-05-12T12:55:08.523Z,6.30
2019-05-12T12:57:40.221Z,6.35
2019-05-12T13:00:09.807Z,5.55
2019-05-12T13:02:44.113Z,6.28
2019-05-12T13:05:10.558Z,6.17
2019-05-12T13:07:40.026Z,6.10
2019-05-12T13:10:09.955Z,6.17
2019-05-12T13:12:39.482Z,8.65
2019-05-12T13:15:09.725Z,9.03
2019-05-12T13:17:41.722Z,5.08
2019-05-12T13:20:10.736Z,4.97
2019-05-12T13:22:40.149Z,5.95
2019-05-12T13:25:09.869Z,10.50
2019-05-12T13:27:39.256Z,6.05
2019-05-12T13:30:18.832Z,7.05
2019-05-12T13:32:40.747Z,4.47
2019-05-12T13:35:16.632Z,8.90
2019-05-12T13:37:43.302Z,6.25
2019-05-12T13:40:13.854Z,5.20
2019-05-12T13:42:43.787Z,6.00
2019-05-12T13:45:16.335Z,6.72
2019-05-12T13:47:45.954Z,7.00
2019-05-12T13:50:21.490Z,5.03
2019-05-12T13:52:46.701Z,5.35
2019-05-12T13:55:16.123Z,7.67
2019-05-12T13:57:52.226Z,7.90
2019-05-12T14:00:19.102Z,9.13
2019-05-12T14:02:49.087Z,6.10
2019-05-12T14:05:18.575Z,6.20
2019-05-12T14:07:50.006Z,4.58
2019-05-12T14:10:19.322Z,6.08
2019-05-12T14:12:48.671Z,4.85
2019-05-12T14:15:18.307Z,4.70
2019-05-12T14:17:47.693Z,5.47
2019-05-12T14:20:20.106Z,5.55
2019-05-12T14:22:48.173Z,11.68
2019-05-12T14:25:21.063Z,5.12
2019-05-12T14:27:48.584Z,5.40
2019-05-12T14:30:17.987Z,6.95
2019-05-12T14:32:49.335Z,7.90
2019-05-12T14:35:18.441Z,13.20
2019-05-12T14:37:47.769Z,8.43
2019-05-12T14:40:21.284Z,10.90
2019-05-12T14:42:48.214Z,16.43
2019-05-12T14:45:19.545Z,17.97
2019-05-12T14:47:48.742Z,21.57
2019-05-12T14:50:18.126Z,20.60
2019-05-12T14:52:50.082Z,19.37
2019-05-12T14:55:18.781Z,20.20
2019-05-12T14:57:48.118Z,12.73
2019-05-12T15:00:21.242Z,21.27
2019-05-12T15:02:49.053Z,19.10
2019-05-12T15:05:18.480Z,25.47
2019-05-12T15:07:53.856Z,18.17
2019-05-12T15:10:19.199Z,16.90
2019-05-12T15:12:48.551Z,18.27
2019-05-12T15:15:20.601Z,16.77
2019-05-12T15:17:56.682Z,22.20
2019-05-12T15:20:20.738Z,17.27
2019-05-12T15:22:51.644Z,11.60
2019-05-12T15:25:21.215Z,12.23
2019-05-12T15:27:50.614Z,17.13
2019-05-12T15:30:23.672Z,16.93
2019-05-12T15:32:51.042Z,13.97
2019-05-12T15:35:20.420Z,20.03
2019-05-12T15:37:55.045Z,19.67
2019-05-12T15:40:23.881Z,13.80
2019-05-12T15:42:54.936Z,13.87
2019-05-12T15:45:24.614Z,18.90
2019-05-12T15:47:54.287Z,18.23
2019-05-12T15:50:26.061Z,7.63
2019-05-12T15:52:54.802Z,16.87
2019-05-12T15:55:31.991Z,15.03
2019-05-12T15:57:55.271Z,17.80
2019-05-12T16:00:24.723Z,13.70
2019-05-12T16:02:54.084Z,14.93
2019-05-12T16:05:26.472Z,16.17
2019-05-12T16:07:54.637Z,17.07
2019-05-12T16:10:24.210Z,20.37
2019-05-12T16:12:54.039Z,19.23
2019-05-12T16:15:23.482Z,20.37
2019-05-12T16:17:53.992Z,11.47
2019-05-12T16:20:23.708Z,19.90
2019-05-12T16:22:53.299Z,23.50
2019-05-12T16:25:29.069Z,16.37
2019-05-12T16:27:53.813Z,16.83
2019-05-12T16:30:25.981Z,14.97
2019-05-12T16:32:55.082Z,21.23
2019-05-12T16:35:26.703Z,19.87
2019-05-12T16:37:55.823Z,17.13
2019-05-12T16:40:25.153Z,15.97
2019-05-12T16:42:59.566Z,15.53
2019-05-12T16:45:25.630Z,17.00
2019-05-12T16:47:59.304Z,14.33
2019-05-12T16:50:28.078Z,19.80
2019-05-12T16:52:57.243Z,16.57
2019-05-12T16:55:26.626Z,14.00
2019-05-12T16:57:56.261Z,17.17
2019-05-12T17:00:30.949Z,14.67
2019-05-12T17:02:59.795Z,18.97
2019-05-12T17:05:29.230Z,19.13
2019-05-12T17:07:58.638Z,23.50
2019-05-12T17:10:27.986Z,21.03
2019-05-12T17:12:57.361Z,18.17
2019-05-12T17:15:26.722Z,19.10
2019-05-12T17:18:01.350Z,16.40
2019-05-12T17:20:27.147Z,14.93
2019-05-12T17:22:59.859Z,15.83
2019-05-12T17:25:27.610Z,20.50
2019-05-12T17:27:58.073Z,25.37
2019-05-12T17:30:28.062Z,15.03
2019-05-12T17:33:01.684Z,16.60
2019-05-12T17:35:31.674Z,18.60
2019-05-12T17:38:00.321Z,15.50
2019-05-12T17:40:29.774Z,20.37
2019-05-12T17:43:06.808Z,17.17
2019-05-12T17:45:30.275Z,19.20
2019-05-12T17:48:02.654Z,19.47
2019-05-12T17:50:30.730Z,21.20
2019-05-12T17:53:00.734Z,18.97
2019-05-12T17:55:30.115Z,14.43
2019-05-12T17:57:59.483Z,16.80
2019-05-12T18:00:29.027Z,16.50
2019-05-12T18:03:14.505Z,13.90
2019-05-12T18:05:29.508Z,10.10
2019-05-12T18:07:58.850Z,14.83
2019-05-12T18:10:32.644Z,15.77
2019-05-12T18:12:59.285Z,18.90
2019-05-12T18:15:33.274Z,18.23
2019-05-12T18:17:59.845Z,13.13
2019-05-12T18:20:31.119Z,16.60
2019-05-12T18:23:00.391Z,17.33
2019-05-12T18:25:30.922Z,9.90
2019-05-12T18:28:03.551Z,7.07
2019-05-12T18:30:32.143Z,16.97
2019-05-12T18:33:06.282Z,16.73
2019-05-12T18:35:35.250Z,10.37
2019-05-12T18:38:08.024Z,10.60
2019-05-12T18:40:35.718Z,8.00
2019-05-12T18:43:05.157Z,10.23
2019-05-12T18:45:34.526Z,7.20
2019-05-12T18:48:08.412Z,10.60
2019-05-12T18:50:35.030Z,10.80
2019-05-12T18:53:04.542Z,9.13
2019-05-12T18:55:40.374Z,7.77
2019-05-12T18:58:08.083Z,5.47
2019-05-12T19:00:37.522Z,8.07
2019-05-12T19:03:09.910Z,11.10
2019-05-12T19:05:38.097Z,6.30
2019-05-12T19:08:07.527Z,12.87
2019-05-12T19:10:38.684Z,9.20
2019-05-12T19:13:08.095Z,11.17
2019-05-12T19:15:37.496Z,9.07
2019-05-12T19:18:06.886Z,8.73
2019-05-12T19:20:37.764Z,5.23
2019-05-12T19:23:07.293Z,9.10
2019-05-12T19:25:40.354Z,9.93
2019-05-12T19:28:10.502Z,7.00
2019-05-12T19:30:38.998Z,7.90
2019-05-12T19:33:10.762Z,8.57
2019-05-12T19:35:39.679Z,10.03
2019-05-12T19:38:09.114Z,10.90
2019-05-12T19:40:38.514Z,7.17
2019-05-12T19:43:08.478Z,12.33
2019-05-12T19:45:38.204Z,5.57
2019-05-12T19:48:07.579Z,11.30
2019-05-12T19:50:36.942Z,4.40
2019-05-12T19:53:06.330Z,11.23
2019-05-12T19:55:35.771Z,11.40
2019-05-12T19:58:10.899Z,7.67
2019-05-12T20:00:36.355Z,6.80
2019-05-12T20:03:08.574Z,9.43
2019-05-12T20:05:36.870Z,8.77
2019-05-12T20:08:06.347Z,8.20
2019-05-12T20:10:43.572Z,9.20
2019-05-12T20:13:06.771Z,7.30
2019-05-12T20:15:40.955Z,7.27
2019-05-12T20:18:07.307Z,6.37
2019-05-12T20:20:41.482Z,8.17
2019-05-12T20:23:07.759Z,9.47
2019-05-12T20:25:37.130Z,12.37
2019-05-12T20:28:11.206Z,5.37
2019-05-12T20:30:37.603Z,7.27
2019-05-12T20:33:08.153Z,6.77
2019-05-12T20:35:39.340Z,5.67
2019-05-12T20:38:08.923Z,8.57
2019-05-12T20:40:57.374Z,5.23
2019-05-12T20:43:32.243Z,11.17
2019-05-12T20:45:57.848Z,4.57
2019-05-12T20:48:31.140Z,7.90
2019-05-12T20:50:58.452Z,7.90
2019-05-12T20:53:32.030Z,7.10
2019-05-12T20:55:58.851Z,6.70
2019-05-12T20:58:33.998Z,6.27
2019-05-12T21:01:02.085Z,3.33
2019-05-12T21:03:30.390Z,6.03
2019-05-12T21:06:01.526Z,5.93
2019-05-12T21:08:30.839Z,5.90
2019-05-12T21:11:00.464Z,7.90
2019-05-12T21:13:31.832Z,6.67
2019-05-12T21:16:14.720Z,8.40
2019-05-12T21:18:46.158Z,7.23
2019-05-12T21:21:03.551Z,4.20
2019-05-12T21:23:33.306Z,5.10
2019-05-12T21:26:04.163Z,5.90
2019-05-12T21:28:37.197Z,7.33
2019-05-12T21:31:04.861Z,5.83
2019-05-12T21:33:39.919Z,4.43
2019-05-12T21:36:05.294Z,5.97
2019-05-12T21:38:34.765Z,4.87
2019-05-12T21:41:07.854Z,5.53
2019-05-12T21:43:35.278Z,4.80
2019-05-12T21:46:10.166Z,4.13
2019-05-12T21:48:35.759Z,8.27
2019-05-12T21:51:09.623Z,7.40
2019-05-12T21:53:36.269Z,4.70
2019-05-12T21:56:05.870Z,7.40
2019-05-12T21:58:35.355Z,7.57
2019-05-12T22:01:07.626Z,5.17
2019-05-12T22:03:36.903Z,5.73
2019-05-12T22:06:15.649Z,7.37
2019-05-12T22:08:37.359Z,3.87
2019-05-12T22:11:11.387Z,6.27
2019-05-12T22:13:38.830Z,3.93
2019-05-12T22:16:08.288Z,4.40
2019-05-12T22:18:37.628Z,9.63
2019-05-12T22:21:07.254Z,6.13
2019-05-12T22:23:36.708Z,3.60
2019-05-12T22:26:06.137Z,3.30
2019-05-12T22:28:40.412Z,4.80
2019-05-12T22:31:06.582Z,2.67
2019-05-12T22:33:40.939Z,5.20
2019-05-12T22:36:14.502Z,5.27
2019-05-12T22:38:38.227Z,4.07
2019-05-12T22:41:07.571Z,3.07
2019-05-12T22:43:41.152Z,3.13
2019-05-12T22:46:08.208Z,4.90
2019-05-12T22:48:40.556Z,5.53
2019-05-12T22:51:17.702Z,3.00
2019-05-12T22:53:39.646Z,5.73
2019-05-12T22:56:17.442Z,3.03
2019-05-12T22:58:40.108Z,4.07
2019-05-12T23:01:09.437Z,3.87
2019-05-12T23:03:43.119Z,6.57
2019-05-12T23:06:23.277Z,6.07
2019-05-12T23:08:45.057Z,4.40
2019-05-12T23:11:14.338Z,5.43
2019-05-12T23:13:43.010Z,4.47
2019-05-12T23:16:14.154Z,4.47
2019-05-12T23:18:44.411Z,5.03
2019-05-12T23:21:17.580Z,1.93
2019-05-12T23:23:50.077Z,3.93
2019-05-12T23:26:16.110Z,4.33
2019-05-12T23:28:46.806Z,2.90
2019-05-12T23:31:19.505Z,2.63
2019-05-12T23:33:47.635Z,3.90
2019-05-12T23:36:19.612Z,2.77
2019-05-12T23:38:51.948Z,2.37
2019-05-12T23:41:19.178Z,4.17
2019-05-12T23:43:48.478Z,2.27
2019-05-12T23:46:17.878Z,4.77
2019-05-12T23:48:47.223Z,3.17
2019-05-12T23:51:16.527Z,3.27
2019-05-12T23:53:45.855Z,2.63
2019-05-12T23:56:15.306Z,5.70
2019-05-12T23:58:44.671Z,2.57
